Vingaren — OZ2131 — position and weather

sailwx.info

Track history (hours):
 
Tides and Currents Weather Stations Pressure Air Temp Water Temp Dewpoint Dewpoint Depression Visibility Wind Speed Wind Dir Waves Ship Positions

Vingaren

Last reported at 2017-Aug-21 00:28 UTC. Time now 2017-Aug-21 00:37 UTC.
Position N 61°38' E 021°23'.

Length 89 m; draft 3.9 m.

Type: Cargo ship. MMSI: 231844000.

Date/timePositionNaut miles runAvg speedWind from/ knotsBaromVisibWave heightAir tempDewpointWater temp
2017-Aug-21 00:28N 61°38' E 021°23'0 0.0
2017-Aug-20 23:58N 61°38' E 021°23'0 0.0
2017-Aug-20 23:28N 61°38' E 021°23'0 0.0
2017-Aug-20 22:58N 61°38' E 021°23'0 0.0
2017-Aug-20 22:28N 61°38' E 021°23'0 0.0
2017-Aug-20 21:58N 61°38' E 021°23'0 0.0
2017-Aug-20 21:28N 61°38' E 021°23'0 0.0
2017-Aug-20 20:58N 61°38' E 021°23'0 0.0
2017-Aug-20 20:28N 61°38' E 021°23'0 0.0
2017-Aug-20 19:58N 61°38' E 021°23'0 0.0
2017-Aug-20 19:28N 61°38' E 021°23'0 0.0
2017-Aug-20 18:58N 61°38' E 021°23'0 0.0
2017-Aug-20 18:28N 61°38' E 021°23'0 0.0
2017-Aug-20 17:55N 61°38' E 021°23'0 0.0
2017-Aug-20 17:28N 61°38' E 021°23'0 0.0
2017-Aug-20 16:58N 61°38' E 021°23'0 0.0
2017-Aug-20 16:28N 61°38' E 021°23'0 0.0
2017-Aug-20 15:58N 61°38' E 021°23'0 0.0
2017-Aug-20 15:28N 61°38' E 021°23'0 0.0
2017-Aug-20 14:58N 61°38' E 021°23'0 0.0
2017-Aug-20 14:28N 61°38' E 021°23'0 1.0
2017-Aug-20 14:00N 61°38' E 021°23'3 7.0
2017-Aug-20 13:31N 61°37' E 021°17'4 7.3
2017-Aug-20 13:00N 61°33' E 021°15'0 0.9
2017-Aug-20 12:30N 61°33' E 021°16'0 0.7
2017-Aug-20 12:00N 61°33' E 021°16'0 0.9
2017-Aug-20 11:30N 61°34' E 021°17'0 0.4
2017-Aug-20 11:00N 61°34' E 021°16'0 0.1
2017-Aug-20 10:30N 61°34' E 021°16'1 1.0
2017-Aug-20 10:00N 61°34' E 021°17'1 1.1
2017-Aug-20 09:30N 61°35' E 021°15'0 0.4
2017-Aug-20 09:00N 61°35' E 021°15'0 0.4
2017-Aug-20 08:30N 61°35' E 021°15'0 0.3
2017-Aug-20 08:01N 61°35' E 021°15'1 1.0
2017-Aug-20 07:30N 61°35' E 021°14'2 4.9
2017-Aug-20 07:00N 61°33' E 021°10'2 5.0
2017-Aug-20 06:30N 61°32' E 021°05'4 7.5
2017-Aug-20 06:00N 61°30' E 020°59'510.6
2017-Aug-20 05:30N 61°26' E 020°51'510.7
2017-Aug-20 05:00N 61°22' E 020°44'510.7
2017-Aug-20 04:30N 61°18' E 020°36'510.7
2017-Aug-20 04:00N 61°14' E 020°28'611.9
2017-Aug-20 03:31N 61°10' E 020°20'5 9.4
2017-Aug-20 03:00N 61°07' E 020°13'510.5
2017-Aug-20 02:30N 61°03' E 020°06'510.6
2017-Aug-20 02:00N 60°59' E 019°59'510.7
2017-Aug-20 01:31N 60°55' E 019°51'510.8
2017-Aug-20 01:01N 60°51' E 019°44'510.8
2017-Aug-20 00:30N 60°47' E 019°36'510.8
2017-Aug-20 00:01N 60°43' E 019°28'510.7
2017-Aug-19 23:30N 60°39' E 019°21'510.7
2017-Aug-19 23:01N 60°35' E 019°14'510.5
2017-Aug-19 22:30N 60°31' E 019°06'5 9.8
2017-Aug-19 22:00N 60°27' E 019°02'510.1
2017-Aug-19 21:31N 60°22' E 019°01'5 9.9
2017-Aug-19 21:00N 60°17' E 019°02'510.0
2017-Aug-19 20:30N 60°12' E 019°05'5 9.8
2017-Aug-19 20:00N 60°08' E 019°10'511.0
2017-Aug-19 19:30N 60°04' E 019°18'4 8.8
2017-Aug-19 19:00N 60°01' E 019°24'5 9.9
2017-Aug-19 18:31N 59°57' E 019°30'5 9.8
2017-Aug-19 18:01N 59°53' E 019°37'5 9.4
2017-Aug-19 17:30N 59°50' E 019°43'5 9.2
2017-Aug-19 17:01N 59°46' E 019°49'5 9.0
2017-Aug-19 16:30N 59°43' E 019°55'4 9.0
2017-Aug-19 16:00N 59°40' E 020°01'4 8.9
2017-Aug-19 15:30N 59°36' E 020°06'4 8.7
2017-Aug-19 15:00N 59°32' E 020°09'10 9.8
2017-Aug-19 14:00N 59°23' E 020°01'510.2
2017-Aug-19 13:30N 59°19' E 019°56'510.2
2017-Aug-19 13:00N 59°14' E 019°51'510.1
2017-Aug-19 12:31N 59°10' E 019°46'510.3
2017-Aug-19 12:00N 59°06' E 019°41'510.4
2017-Aug-19 11:30N 59°01' E 019°36'610.5
2017-Aug-19 10:55N 58°56' E 019°30'13210.4
2017-Aug-18 22:15N 57°01' E 017°29'310.3
2017-Aug-18 21:59N 56°59' E 017°27'510.3
2017-Aug-18 21:28N 56°54' E 017°24'1310.1
2017-Aug-18 20:13N 56°42' E 017°15'4 9.9
2017-Aug-18 19:49N 56°38' E 017°12'810.0
2017-Aug-18 19:00N 56°31' E 017°07'1010.1
2017-Aug-18 17:58N 56°21' E 016°60'810.2
2017-Aug-18 17:13N 56°14' E 016°54'210.4
2017-Aug-18 17:00N 56°12' E 016°53'510.1
2017-Aug-18 16:29N 56°07' E 016°49'5 9.9
2017-Aug-18 16:00N 56°03' E 016°44'5 9.9
2017-Aug-18 15:30N 55°59' E 016°39'510.1
2017-Aug-18 15:00N 55°55' E 016°34'510.1
2017-Aug-18 14:30N 55°51' E 016°29'1010.1
2017-Aug-18 13:30N 55°42' E 016°19'510.2
2017-Aug-18 13:00N 55°38' E 016°15'510.2
2017-Aug-18 12:30N 55°34' E 016°10'5 9.9
2017-Aug-18 12:00N 55°29' E 016°05'5 9.5
2017-Aug-18 11:30N 55°26' E 016°00'5 9.3
2017-Aug-18 11:00N 55°22' E 015°56'14 9.5
2017-Aug-18 09:34N 55°10' E 015°43'4 9.7
2017-Aug-18 09:07N 55°06' E 015°40'1 9.9
2017-Aug-18 08:58N 55°05' E 015°38'96 8.7
2017-Aug-17 22:01N 53°37' E 014°35'5 9.8
2017-Aug-17 21:31N 53°32' E 014°38'4 8.9
2017-Aug-17 21:01N 53°28' E 014°36'4 7.0
2017-Aug-17 20:30N 53°24' E 014°36'0 0.1
2017-Aug-17 20:00N 53°24' E 014°37'0 0.0
2017-Aug-17 19:27N 53°24' E 014°37'0 0.0
2017-Aug-17 19:00N 53°24' E 014°37'0 0.0
2017-Aug-17 18:30N 53°24' E 014°37'0 0.0
2017-Aug-17 18:00N 53°24' E 014°37'0 0.0
2017-Aug-17 17:30N 53°24' E 014°37'0 0.0
2017-Aug-17 17:00N 53°24' E 014°37'0 0.0
2017-Aug-17 16:30N 53°24' E 014°37'0 0.0
2017-Aug-17 16:00N 53°24' E 014°37'0 0.0
2017-Aug-17 15:30N 53°24' E 014°37'0 0.0
2017-Aug-17 15:00N 53°24' E 014°37'0 0.0
2017-Aug-17 14:30N 53°24' E 014°37'0 0.0
2017-Aug-17 14:00N 53°24' E 014°37'0 0.0
2017-Aug-17 13:30N 53°24' E 014°37'0 0.0
2017-Aug-17 13:00N 53°24' E 014°37'0 0.0
2017-Aug-17 12:30N 53°24' E 014°37'0 0.0
2017-Aug-17 12:00N 53°24' E 014°37'0 0.0
2017-Aug-17 11:30N 53°24' E 014°37'0 0.0
2017-Aug-17 11:00N 53°24' E 014°37'0 0.0
2017-Aug-17 10:30N 53°24' E 014°37'0 0.0
2017-Aug-17 10:00N 53°24' E 014°37'0 0.0
2017-Aug-17 09:30N 53°24' E 014°37'0 0.0
2017-Aug-17 09:00N 53°24' E 014°37'0 0.0
2017-Aug-17 08:30N 53°24' E 014°37'0 0.0
2017-Aug-17 07:57N 53°24' E 014°37'0 0.0
2017-Aug-17 07:29N 53°24' E 014°37'0 0.0
2017-Aug-17 06:59N 53°24' E 014°37'0 0.0
2017-Aug-17 06:29N 53°24' E 014°37'0 0.0
2017-Aug-17 05:59N 53°24' E 014°37'0 0.0
2017-Aug-17 05:29N 53°24' E 014°37'0 0.0
2017-Aug-17 04:59N 53°24' E 014°37'0 0.0
2017-Aug-17 04:29N 53°24' E 014°37'0 0.0
2017-Aug-17 03:59N 53°24' E 014°37'0 0.0
2017-Aug-17 03:29N 53°24' E 014°37'0 0.0
2017-Aug-17 02:59N 53°24' E 014°37'0 0.0
2017-Aug-17 02:29N 53°24' E 014°37'0 0.0
2017-Aug-17 01:59N 53°24' E 014°37'0 0.0
2017-Aug-17 01:29N 53°24' E 014°37'0 0.0
2017-Aug-17 00:59N 53°24' E 014°37'0 0.3
2017-Aug-17 00:31N 53°24' E 014°36'1 2.3
2017-Aug-17 00:01N 53°26' E 014°36'4 7.0
2017-Aug-16 23:31N 53°29' E 014°37'4 8.4
2017-Aug-16 23:01N 53°33' E 014°36'5 9.3
2017-Aug-16 22:30N 53°38' E 014°35'5 9.5
2017-Aug-16 22:00N 53°42' E 014°30'5 9.8
2017-Aug-16 21:30N 53°45' E 014°25'68 8.5
2017-Aug-16 13:26N 54°46' E 015°17'5 9.5
2017-Aug-16 12:57N 54°50' E 015°21'6 9.4
2017-Aug-16 12:22N 54°55' E 015°25'4 9.7
2017-Aug-16 11:59N 54°59' E 015°28'5 9.9
2017-Aug-16 11:30N 55°03' E 015°32'5 9.9
2017-Aug-16 11:00N 55°07' E 015°37'5 9.8
2017-Aug-16 10:30N 55°11' E 015°41'5 9.9
2017-Aug-16 10:00N 55°15' E 015°45'5 9.8
2017-Aug-16 09:30N 55°20' E 015°50'5 9.7
2017-Aug-16 09:00N 55°24' E 015°54'5 9.5
2017-Aug-16 08:30N 55°28' E 015°58'5 9.3
2017-Aug-16 08:00N 55°32' E 016°01'5 9.0
2017-Aug-16 07:30N 55°36' E 016°05'4 8.8
2017-Aug-16 07:00N 55°40' E 016°09'4 8.9
2017-Aug-16 06:30N 55°44' E 016°13'4 8.8
2017-Aug-16 06:00N 55°48' E 016°17'4 8.8
2017-Aug-16 05:30N 55°52' E 016°21'4 8.8
2017-Aug-16 05:00N 55°55' E 016°25'4 8.6
2017-Aug-16 04:30N 55°59' E 016°28'4 8.9
2017-Aug-16 04:00N 56°03' E 016°32'4 8.8
2017-Aug-16 03:30N 56°06' E 016°38'4 8.7
2017-Aug-16 03:01N 56°09' E 016°44'4 8.5
2017-Aug-16 02:30N 56°13' E 016°46'4 8.3
2017-Aug-16 02:00N 56°17' E 016°48'4 8.5
2017-Aug-16 01:30N 56°21' E 016°50'4 8.7
2017-Aug-16 01:00N 56°25' E 016°52'4 8.8
2017-Aug-16 00:30N 56°29' E 016°54'4 8.5
2017-Aug-16 00:00N 56°34' E 016°56'4 8.7
2017-Aug-15 23:30N 56°38' E 016°58'22 9.1
2017-Aug-15 21:06N 56°59' E 017°08'1 9.3
2017-Aug-15 20:59N 57°00' E 017°09'4 9.2
2017-Aug-15 20:30N 57°04' E 017°11'5 9.5
2017-Aug-15 20:01N 57°09' E 017°13'4 8.8
2017-Aug-15 19:30N 57°13' E 017°15'4 9.0
2017-Aug-15 19:00N 57°17' E 017°18'4 8.9
2017-Aug-15 18:30N 57°22' E 017°20'55 8.8
2017-Aug-15 12:18N 58°15' E 017°42'3 9.1
2017-Aug-15 12:00N 58°18' E 017°43'6 9.1
2017-Aug-15 11:22N 58°23' E 017°46'3 9.5
2017-Aug-15 11:00N 58°27' E 017°47'5 9.5
2017-Aug-15 10:31N 58°31' E 017°49'5 9.7
2017-Aug-15 10:00N 58°36' E 017°51'5 9.5
2017-Aug-15 09:30N 58°41' E 017°53'33 7.3
2017-Aug-15 05:00N 59°13' E 017°37'4 7.8
2017-Aug-15 04:30N 59°16' E 017°34'5 9.2
2017-Aug-15 03:59N 59°20' E 017°29'0 0.6
2017-Aug-15 03:29N 59°20' E 017°28'0 0.0
2017-Aug-15 02:59N 59°20' E 017°28'0 0.0
2017-Aug-15 02:29N 59°20' E 017°28'0 0.0
2017-Aug-15 01:59N 59°20' E 017°28'0 0.0
2017-Aug-15 01:29N 59°20' E 017°28'0 0.0
2017-Aug-15 00:59N 59°20' E 017°28'0 0.1
2017-Aug-15 00:29N 59°20' E 017°28'0 0.0
2017-Aug-14 23:59N 59°20' E 017°28'0 0.0
2017-Aug-14 23:29N 59°20' E 017°28'0 0.0
2017-Aug-14 22:59N 59°20' E 017°28'0 0.0
2017-Aug-14 22:29N 59°20' E 017°28'0 0.0
2017-Aug-14 21:59N 59°20' E 017°28'0 0.0
2017-Aug-14 21:29N 59°20' E 017°28'0 0.1
2017-Aug-14 20:59N 59°20' E 017°28'3 5.6
2017-Aug-14 20:30N 59°23' E 017°27'5 9.2
2017-Aug-14 20:00N 59°26' E 017°21'5 8.9
2017-Aug-14 19:29N 59°29' E 017°13'4 9.2
2017-Aug-14 19:00N 59°32' E 017°06'4 7.5
2017-Aug-14 18:31N 59°32' E 016°59'5 6.1
2017-Aug-14 17:43N 59°30' E 016°51'3 0.1
2017-Aug-13 09:22N 59°31' E 016°45'5 9.9
2017-Aug-13 08:52N 59°29' E 016°54'3 7.8
2017-Aug-13 08:29N 59°31' E 016°58'3 6.1
2017-Aug-13 08:00N 59°32' E 017°03'5 9.8
2017-Aug-13 07:30N 59°30' E 017°13'5 9.3
2017-Aug-13 07:00N 59°27' E 017°18'5 9.6
2017-Aug-13 06:30N 59°24' E 017°26'4 6.7
2017-Aug-13 05:59N 59°20' E 017°28'0 0.0
2017-Aug-13 05:29N 59°20' E 017°28'0 0.0
2017-Aug-13 04:59N 59°20' E 017°28'0 0.0
2017-Aug-13 04:29N 59°20' E 017°28'0 0.0
2017-Aug-13 03:59N 59°21' E 017°28'0 0.1
2017-Aug-13 03:29N 59°20' E 017°28'0 0.0
2017-Aug-13 02:59N 59°20' E 017°28'0 0.0
2017-Aug-13 02:29N 59°20' E 017°28'0 0.0
2017-Aug-13 01:59N 59°20' E 017°28'0 0.0
2017-Aug-13 01:29N 59°20' E 017°28'0 0.0
2017-Aug-13 00:59N 59°20' E 017°28'0 0.0
2017-Aug-13 00:29N 59°20' E 017°28'0 0.0
2017-Aug-12 23:59N 59°20' E 017°28'0 0.0
2017-Aug-12 23:29N 59°20' E 017°28'0 0.0
2017-Aug-12 22:59N 59°20' E 017°28'0 0.0
2017-Aug-12 22:29N 59°20' E 017°28'0 0.0
2017-Aug-12 21:59N 59°20' E 017°28'0 0.0
2017-Aug-12 21:29N 59°20' E 017°28'0 0.0
2017-Aug-12 20:59N 59°20' E 017°28'0 0.0
2017-Aug-12 20:29N 59°20' E 017°28'0 0.0
2017-Aug-12 19:56N 59°20' E 017°28'0 0.1
2017-Aug-12 19:25N 59°20' E 017°28'0 1.0
2017-Aug-12 19:00N 59°20' E 017°29'5 9.2
2017-Aug-12 18:30N 59°16' E 017°34'32 7.3
2017-Aug-12 14:09N 58°46' E 017°48'110.2
2017-Aug-12 14:00N 58°45' E 017°50'4 8.4
2017-Aug-12 13:30N 58°45' E 017°58'610.2
2017-Aug-12 12:57N 58°46' E 018°09'510.2
2017-Aug-12 12:30N 58°48' E 018°17'510.1
2017-Aug-12 12:00N 58°51' E 018°25'510.1
2017-Aug-12 11:30N 58°54' E 018°32'510.1
2017-Aug-12 11:00N 58°58' E 018°40'510.0
2017-Aug-12 10:30N 59°01' E 018°48'5 9.8
2017-Aug-12 10:00N 59°04' E 018°55'510.1
2017-Aug-12 09:31N 59°07' E 019°03'510.1
2017-Aug-12 09:01N 59°10' E 019°11'510.1
2017-Aug-12 08:30N 59°13' E 019°18'5 9.9
2017-Aug-12 08:00N 59°16' E 019°25'5 9.9
2017-Aug-12 07:30N 59°20' E 019°33'5 9.7
2017-Aug-12 07:00N 59°23' E 019°40'5 9.7
2017-Aug-12 06:30N 59°26' E 019°47'5 9.7
2017-Aug-12 06:00N 59°29' E 019°54'5 9.7
2017-Aug-12 05:30N 59°34' E 019°57'5 9.5
2017-Aug-12 05:00N 59°38' E 019°54'5 9.7
2017-Aug-12 04:30N 59°42' E 019°48'5 9.7
2017-Aug-12 04:01N 59°46' E 019°42'5 9.6
2017-Aug-12 03:30N 59°50' E 019°36'5 9.6
2017-Aug-12 03:00N 59°53' E 019°30'5 9.8
2017-Aug-12 02:30N 59°57' E 019°24'5 9.8
2017-Aug-12 02:00N 60°01' E 019°17'5 9.8
2017-Aug-12 01:30N 60°05' E 019°11'5 9.9
2017-Aug-12 01:01N 60°08' E 019°05'5 9.6
2017-Aug-12 00:30N 60°13' E 019°01'510.0
2017-Aug-12 00:00N 60°18' E 019°00'5 9.9
2017-Aug-11 23:30N 60°23' E 018°59'5 9.9
2017-Aug-11 23:00N 60°28' E 018°58'5 9.3
2017-Aug-11 22:31N 60°32' E 018°53'510.0
2017-Aug-11 22:00N 60°34' E 018°44'510.0
2017-Aug-11 21:30N 60°37' E 018°36'510.1
2017-Aug-11 21:00N 60°40' E 018°27'510.3
2017-Aug-11 20:30N 60°42' E 018°18'5 9.9
2017-Aug-11 20:00N 60°45' E 018°09'610.8
2017-Aug-11 19:30N 60°48' E 017°59'48 9.2
2017-Aug-11 14:15N 61°33' E 017°29'11 3.6
2017-Aug-11 11:15N 61°37' E 017°07'0 0.0
2017-Aug-11 10:58N 61°37' E 017°07'0 0.0
2017-Aug-11 10:30N 61°37' E 017°07'0 0.0
2017-Aug-11 10:00N 61°37' E 017°07'0 0.0
2017-Aug-11 09:30N 61°37' E 017°07'0 0.0
2017-Aug-11 09:00N 61°37' E 017°07'0 0.0
2017-Aug-11 08:30N 61°37' E 017°07'0 0.0
2017-Aug-11 08:00N 61°37' E 017°07'0 0.0
2017-Aug-11 07:30N 61°37' E 017°07'0 0.0
2017-Aug-11 07:00N 61°37' E 017°07'0 0.0
2017-Aug-11 05:51N 61°37' E 017°07'  
Track history (hours):
 
Tides and Currents Weather Stations Pressure Air Temp Water Temp Dewpoint Dewpoint Depression Visibility Wind Speed Wind Dir Waves Ship Positions

Vingaren

Last reported at 2017-Aug-21 00:28 UTC. Time now 2017-Aug-21 00:37 UTC.
Position N 61°38' E 021°23'.

Length 89 m; draft 3.9 m.

Type: Cargo ship. MMSI: 231844000.

Date/timePositionNaut miles runAvg speedWind from/ knotsBaromVisibWave heightAir tempDewpointWater temp
2017-Aug-21 00:28N 61°38' E 021°23'0 0.0
2017-Aug-20 23:58N 61°38' E 021°23'0 0.0
2017-Aug-20 23:28N 61°38' E 021°23'0 0.0
2017-Aug-20 22:58N 61°38' E 021°23'0 0.0
2017-Aug-20 22:28N 61°38' E 021°23'0 0.0
2017-Aug-20 21:58N 61°38' E 021°23'0 0.0
2017-Aug-20 21:28N 61°38' E 021°23'0 0.0
2017-Aug-20 20:58N 61°38' E 021°23'0 0.0
2017-Aug-20 20:28N 61°38' E 021°23'0 0.0
2017-Aug-20 19:58N 61°38' E 021°23'0 0.0
2017-Aug-20 19:28N 61°38' E 021°23'0 0.0
2017-Aug-20 18:58N 61°38' E 021°23'0 0.0
2017-Aug-20 18:28N 61°38' E 021°23'0 0.0
2017-Aug-20 17:55N 61°38' E 021°23'0 0.0
2017-Aug-20 17:28N 61°38' E 021°23'0 0.0
2017-Aug-20 16:58N 61°38' E 021°23'0 0.0
2017-Aug-20 16:28N 61°38' E 021°23'0 0.0
2017-Aug-20 15:58N 61°38' E 021°23'0 0.0
2017-Aug-20 15:28N 61°38' E 021°23'0 0.0
2017-Aug-20 14:58N 61°38' E 021°23'0 0.0
2017-Aug-20 14:28N 61°38' E 021°23'0 1.0
2017-Aug-20 14:00N 61°38' E 021°23'3 7.0
2017-Aug-20 13:31N 61°37' E 021°17'4 7.3
2017-Aug-20 13:00N 61°33' E 021°15'0 0.9
2017-Aug-20 12:30N 61°33' E 021°16'0 0.7
2017-Aug-20 12:00N 61°33' E 021°16'0 0.9
2017-Aug-20 11:30N 61°34' E 021°17'0 0.4
2017-Aug-20 11:00N 61°34' E 021°16'0 0.1
2017-Aug-20 10:30N 61°34' E 021°16'1 1.0
2017-Aug-20 10:00N 61°34' E 021°17'1 1.1
2017-Aug-20 09:30N 61°35' E 021°15'0 0.4
2017-Aug-20 09:00N 61°35' E 021°15'0 0.4
2017-Aug-20 08:30N 61°35' E 021°15'0 0.3
2017-Aug-20 08:01N 61°35' E 021°15'1 1.0
2017-Aug-20 07:30N 61°35' E 021°14'2 4.9
2017-Aug-20 07:00N 61°33' E 021°10'2 5.0
2017-Aug-20 06:30N 61°32' E 021°05'4 7.5
2017-Aug-20 06:00N 61°30' E 020°59'510.6
2017-Aug-20 05:30N 61°26' E 020°51'510.7
2017-Aug-20 05:00N 61°22' E 020°44'510.7
2017-Aug-20 04:30N 61°18' E 020°36'510.7
2017-Aug-20 04:00N 61°14' E 020°28'611.9
2017-Aug-20 03:31N 61°10' E 020°20'5 9.4
2017-Aug-20 03:00N 61°07' E 020°13'510.5
2017-Aug-20 02:30N 61°03' E 020°06'510.6
2017-Aug-20 02:00N 60°59' E 019°59'510.7
2017-Aug-20 01:31N 60°55' E 019°51'510.8
2017-Aug-20 01:01N 60°51' E 019°44'510.8
2017-Aug-20 00:30N 60°47' E 019°36'510.8
2017-Aug-20 00:01N 60°43' E 019°28'510.7
2017-Aug-19 23:30N 60°39' E 019°21'510.7
2017-Aug-19 23:01N 60°35' E 019°14'510.5
2017-Aug-19 22:30N 60°31' E 019°06'5 9.8
2017-Aug-19 22:00N 60°27' E 019°02'510.1
2017-Aug-19 21:31N 60°22' E 019°01'5 9.9
2017-Aug-19 21:00N 60°17' E 019°02'510.0
2017-Aug-19 20:30N 60°12' E 019°05'5 9.8
2017-Aug-19 20:00N 60°08' E 019°10'511.0
2017-Aug-19 19:30N 60°04' E 019°18'4 8.8
2017-Aug-19 19:00N 60°01' E 019°24'5 9.9
2017-Aug-19 18:31N 59°57' E 019°30'5 9.8
2017-Aug-19 18:01N 59°53' E 019°37'5 9.4
2017-Aug-19 17:30N 59°50' E 019°43'5 9.2
2017-Aug-19 17:01N 59°46' E 019°49'5 9.0
2017-Aug-19 16:30N 59°43' E 019°55'4 9.0
2017-Aug-19 16:00N 59°40' E 020°01'4 8.9
2017-Aug-19 15:30N 59°36' E 020°06'4 8.7
2017-Aug-19 15:00N 59°32' E 020°09'10 9.8
2017-Aug-19 14:00N 59°23' E 020°01'510.2
2017-Aug-19 13:30N 59°19' E 019°56'510.2
2017-Aug-19 13:00N 59°14' E 019°51'510.1
2017-Aug-19 12:31N 59°10' E 019°46'510.3
2017-Aug-19 12:00N 59°06' E 019°41'510.4
2017-Aug-19 11:30N 59°01' E 019°36'610.5
2017-Aug-19 10:55N 58°56' E 019°30'13210.4
2017-Aug-18 22:15N 57°01' E 017°29'310.3
2017-Aug-18 21:59N 56°59' E 017°27'510.3
2017-Aug-18 21:28N 56°54' E 017°24'1310.1
2017-Aug-18 20:13N 56°42' E 017°15'4 9.9
2017-Aug-18 19:49N 56°38' E 017°12'810.0
2017-Aug-18 19:00N 56°31' E 017°07'1010.1
2017-Aug-18 17:58N 56°21' E 016°60'810.2
2017-Aug-18 17:13N 56°14' E 016°54'210.4
2017-Aug-18 17:00N 56°12' E 016°53'510.1
2017-Aug-18 16:29N 56°07' E 016°49'5 9.9
2017-Aug-18 16:00N 56°03' E 016°44'5 9.9
2017-Aug-18 15:30N 55°59' E 016°39'510.1
2017-Aug-18 15:00N 55°55' E 016°34'510.1
2017-Aug-18 14:30N 55°51' E 016°29'1010.1
2017-Aug-18 13:30N 55°42' E 016°19'510.2
2017-Aug-18 13:00N 55°38' E 016°15'510.2
2017-Aug-18 12:30N 55°34' E 016°10'5 9.9
2017-Aug-18 12:00N 55°29' E 016°05'5 9.5
2017-Aug-18 11:30N 55°26' E 016°00'5 9.3
2017-Aug-18 11:00N 55°22' E 015°56'14 9.5
2017-Aug-18 09:34N 55°10' E 015°43'4 9.7
2017-Aug-18 09:07N 55°06' E 015°40'1 9.9
2017-Aug-18 08:58N 55°05' E 015°38'96 8.7
2017-Aug-17 22:01N 53°37' E 014°35'5 9.8
2017-Aug-17 21:31N 53°32' E 014°38'4 8.9
2017-Aug-17 21:01N 53°28' E 014°36'4 7.0
2017-Aug-17 20:30N 53°24' E 014°36'0 0.1
2017-Aug-17 20:00N 53°24' E 014°37'0 0.0
2017-Aug-17 19:27N 53°24' E 014°37'0 0.0
2017-Aug-17 19:00N 53°24' E 014°37'0 0.0
2017-Aug-17 18:30N 53°24' E 014°37'0 0.0
2017-Aug-17 18:00N 53°24' E 014°37'0 0.0
2017-Aug-17 17:30N 53°24' E 014°37'0 0.0
2017-Aug-17 17:00N 53°24' E 014°37'0 0.0
2017-Aug-17 16:30N 53°24' E 014°37'0 0.0
2017-Aug-17 16:00N 53°24' E 014°37'0 0.0
2017-Aug-17 15:30N 53°24' E 014°37'0 0.0
2017-Aug-17 15:00N 53°24' E 014°37'0 0.0
2017-Aug-17 14:30N 53°24' E 014°37'0 0.0
2017-Aug-17 14:00N 53°24' E 014°37'0 0.0
2017-Aug-17 13:30N 53°24' E 014°37'0 0.0
2017-Aug-17 13:00N 53°24' E 014°37'0 0.0
2017-Aug-17 12:30N 53°24' E 014°37'0 0.0
2017-Aug-17 12:00N 53°24' E 014°37'0 0.0
2017-Aug-17 11:30N 53°24' E 014°37'0 0.0
2017-Aug-17 11:00N 53°24' E 014°37'0 0.0
2017-Aug-17 10:30N 53°24' E 014°37'0 0.0
2017-Aug-17 10:00N 53°24' E 014°37'0 0.0
2017-Aug-17 09:30N 53°24' E 014°37'0 0.0
2017-Aug-17 09:00N 53°24' E 014°37'0 0.0
2017-Aug-17 08:30N 53°24' E 014°37'0 0.0
2017-Aug-17 07:57N 53°24' E 014°37'0 0.0
2017-Aug-17 07:29N 53°24' E 014°37'0 0.0
2017-Aug-17 06:59N 53°24' E 014°37'0 0.0
2017-Aug-17 06:29N 53°24' E 014°37'0 0.0
2017-Aug-17 05:59N 53°24' E 014°37'0 0.0
2017-Aug-17 05:29N 53°24' E 014°37'0 0.0
2017-Aug-17 04:59N 53°24' E 014°37'0 0.0
2017-Aug-17 04:29N 53°24' E 014°37'0 0.0
2017-Aug-17 03:59N 53°24' E 014°37'0 0.0
2017-Aug-17 03:29N 53°24' E 014°37'0 0.0
2017-Aug-17 02:59N 53°24' E 014°37'0 0.0
2017-Aug-17 02:29N 53°24' E 014°37'0 0.0
2017-Aug-17 01:59N 53°24' E 014°37'0 0.0
2017-Aug-17 01:29N 53°24' E 014°37'0 0.0
2017-Aug-17 00:59N 53°24' E 014°37'0 0.3
2017-Aug-17 00:31N 53°24' E 014°36'1 2.3
2017-Aug-17 00:01N 53°26' E 014°36'4 7.0
2017-Aug-16 23:31N 53°29' E 014°37'4 8.4
2017-Aug-16 23:01N 53°33' E 014°36'5 9.3
2017-Aug-16 22:30N 53°38' E 014°35'5 9.5
2017-Aug-16 22:00N 53°42' E 014°30'5 9.8
2017-Aug-16 21:30N 53°45' E 014°25'68 8.5
2017-Aug-16 13:26N 54°46' E 015°17'5 9.5
2017-Aug-16 12:57N 54°50' E 015°21'6 9.4
2017-Aug-16 12:22N 54°55' E 015°25'4 9.7
2017-Aug-16 11:59N 54°59' E 015°28'5 9.9
2017-Aug-16 11:30N 55°03' E 015°32'5 9.9
2017-Aug-16 11:00N 55°07' E 015°37'5 9.8
2017-Aug-16 10:30N 55°11' E 015°41'5 9.9
2017-Aug-16 10:00N 55°15' E 015°45'5 9.8
2017-Aug-16 09:30N 55°20' E 015°50'5 9.7
2017-Aug-16 09:00N 55°24' E 015°54'5 9.5
2017-Aug-16 08:30N 55°28' E 015°58'5 9.3
2017-Aug-16 08:00N 55°32' E 016°01'5 9.0
2017-Aug-16 07:30N 55°36' E 016°05'4 8.8
2017-Aug-16 07:00N 55°40' E 016°09'4 8.9
2017-Aug-16 06:30N 55°44' E 016°13'4 8.8
2017-Aug-16 06:00N 55°48' E 016°17'4 8.8
2017-Aug-16 05:30N 55°52' E 016°21'4 8.8
2017-Aug-16 05:00N 55°55' E 016°25'4 8.6
2017-Aug-16 04:30N 55°59' E 016°28'4 8.9
2017-Aug-16 04:00N 56°03' E 016°32'4 8.8
2017-Aug-16 03:30N 56°06' E 016°38'4 8.7
2017-Aug-16 03:01N 56°09' E 016°44'4 8.5
2017-Aug-16 02:30N 56°13' E 016°46'4 8.3
2017-Aug-16 02:00N 56°17' E 016°48'4 8.5
2017-Aug-16 01:30N 56°21' E 016°50'4 8.7
2017-Aug-16 01:00N 56°25' E 016°52'4 8.8
2017-Aug-16 00:30N 56°29' E 016°54'4 8.5
2017-Aug-16 00:00N 56°34' E 016°56'4 8.7
2017-Aug-15 23:30N 56°38' E 016°58'22 9.1
2017-Aug-15 21:06N 56°59' E 017°08'1 9.3
2017-Aug-15 20:59N 57°00' E 017°09'4 9.2
2017-Aug-15 20:30N 57°04' E 017°11'5 9.5
2017-Aug-15 20:01N 57°09' E 017°13'4 8.8
2017-Aug-15 19:30N 57°13' E 017°15'4 9.0
2017-Aug-15 19:00N 57°17' E 017°18'4 8.9
2017-Aug-15 18:30N 57°22' E 017°20'55 8.8
2017-Aug-15 12:18N 58°15' E 017°42'3 9.1
2017-Aug-15 12:00N 58°18' E 017°43'6 9.1
2017-Aug-15 11:22N 58°23' E 017°46'3 9.5
2017-Aug-15 11:00N 58°27' E 017°47'5 9.5
2017-Aug-15 10:31N 58°31' E 017°49'5 9.7
2017-Aug-15 10:00N 58°36' E 017°51'5 9.5
2017-Aug-15 09:30N 58°41' E 017°53'33 7.3
2017-Aug-15 05:00N 59°13' E 017°37'4 7.8
2017-Aug-15 04:30N 59°16' E 017°34'5 9.2
2017-Aug-15 03:59N 59°20' E 017°29'0 0.6
2017-Aug-15 03:29N 59°20' E 017°28'0 0.0
2017-Aug-15 02:59N 59°20' E 017°28'0 0.0
2017-Aug-15 02:29N 59°20' E 017°28'0 0.0
2017-Aug-15 01:59N 59°20' E 017°28'0 0.0
2017-Aug-15 01:29N 59°20' E 017°28'0 0.0
2017-Aug-15 00:59N 59°20' E 017°28'0 0.1
2017-Aug-15 00:29N 59°20' E 017°28'0 0.0
2017-Aug-14 23:59N 59°20' E 017°28'0 0.0
2017-Aug-14 23:29N 59°20' E 017°28'0 0.0
2017-Aug-14 22:59N 59°20' E 017°28'0 0.0
2017-Aug-14 22:29N 59°20' E 017°28'0 0.0
2017-Aug-14 21:59N 59°20' E 017°28'0 0.0
2017-Aug-14 21:29N 59°20' E 017°28'0 0.1
2017-Aug-14 20:59N 59°20' E 017°28'3 5.6
2017-Aug-14 20:30N 59°23' E 017°27'5 9.2
2017-Aug-14 20:00N 59°26' E 017°21'5 8.9
2017-Aug-14 19:29N 59°29' E 017°13'4 9.2
2017-Aug-14 19:00N 59°32' E 017°06'4 7.5
2017-Aug-14 18:31N 59°32' E 016°59'5 6.1
2017-Aug-14 17:43N 59°30' E 016°51'3 0.1
2017-Aug-13 09:22N 59°31' E 016°45'5 9.9
2017-Aug-13 08:52N 59°29' E 016°54'3 7.8
2017-Aug-13 08:29N 59°31' E 016°58'3 6.1
2017-Aug-13 08:00N 59°32' E 017°03'5 9.8
2017-Aug-13 07:30N 59°30' E 017°13'5 9.3
2017-Aug-13 07:00N 59°27' E 017°18'5 9.6
2017-Aug-13 06:30N 59°24' E 017°26'4 6.7
2017-Aug-13 05:59N 59°20' E 017°28'0 0.0
2017-Aug-13 05:29N 59°20' E 017°28'0 0.0
2017-Aug-13 04:59N 59°20' E 017°28'0 0.0
2017-Aug-13 04:29N 59°20' E 017°28'0 0.0
2017-Aug-13 03:59N 59°21' E 017°28'0 0.1
2017-Aug-13 03:29N 59°20' E 017°28'0 0.0
2017-Aug-13 02:59N 59°20' E 017°28'0 0.0
2017-Aug-13 02:29N 59°20' E 017°28'0 0.0
2017-Aug-13 01:59N 59°20' E 017°28'0 0.0
2017-Aug-13 01:29N 59°20' E 017°28'0 0.0
2017-Aug-13 00:59N 59°20' E 017°28'0 0.0
2017-Aug-13 00:29N 59°20' E 017°28'0 0.0
2017-Aug-12 23:59N 59°20' E 017°28'0 0.0
2017-Aug-12 23:29N 59°20' E 017°28'0 0.0
2017-Aug-12 22:59N 59°20' E 017°28'0 0.0
2017-Aug-12 22:29N 59°20' E 017°28'0 0.0
2017-Aug-12 21:59N 59°20' E 017°28'0 0.0
2017-Aug-12 21:29N 59°20' E 017°28'0 0.0
2017-Aug-12 20:59N 59°20' E 017°28'0 0.0
2017-Aug-12 20:29N 59°20' E 017°28'0 0.0
2017-Aug-12 19:56N 59°20' E 017°28'0 0.1
2017-Aug-12 19:25N 59°20' E 017°28'0 1.0
2017-Aug-12 19:00N 59°20' E 017°29'5 9.2
2017-Aug-12 18:30N 59°16' E 017°34'32 7.3
2017-Aug-12 14:09N 58°46' E 017°48'110.2
2017-Aug-12 14:00N 58°45' E 017°50'4 8.4
2017-Aug-12 13:30N 58°45' E 017°58'610.2
2017-Aug-12 12:57N 58°46' E 018°09'510.2
2017-Aug-12 12:30N 58°48' E 018°17'510.1
2017-Aug-12 12:00N 58°51' E 018°25'510.1
2017-Aug-12 11:30N 58°54' E 018°32'510.1
2017-Aug-12 11:00N 58°58' E 018°40'510.0
2017-Aug-12 10:30N 59°01' E 018°48'5 9.8
2017-Aug-12 10:00N 59°04' E 018°55'510.1
2017-Aug-12 09:31N 59°07' E 019°03'510.1
2017-Aug-12 09:01N 59°10' E 019°11'510.1
2017-Aug-12 08:30N 59°13' E 019°18'5 9.9
2017-Aug-12 08:00N 59°16' E 019°25'5 9.9
2017-Aug-12 07:30N 59°20' E 019°33'5 9.7
2017-Aug-12 07:00N 59°23' E 019°40'5 9.7
2017-Aug-12 06:30N 59°26' E 019°47'5 9.7
2017-Aug-12 06:00N 59°29' E 019°54'5 9.7
2017-Aug-12 05:30N 59°34' E 019°57'5 9.5
2017-Aug-12 05:00N 59°38' E 019°54'5 9.7
2017-Aug-12 04:30N 59°42' E 019°48'5 9.7
2017-Aug-12 04:01N 59°46' E 019°42'5 9.6
2017-Aug-12 03:30N 59°50' E 019°36'5 9.6
2017-Aug-12 03:00N 59°53' E 019°30'5 9.8
2017-Aug-12 02:30N 59°57' E 019°24'5 9.8
2017-Aug-12 02:00N 60°01' E 019°17'5 9.8
2017-Aug-12 01:30N 60°05' E 019°11'5 9.9
2017-Aug-12 01:01N 60°08' E 019°05'5 9.6
2017-Aug-12 00:30N 60°13' E 019°01'510.0
2017-Aug-12 00:00N 60°18' E 019°00'5 9.9
2017-Aug-11 23:30N 60°23' E 018°59'5 9.9
2017-Aug-11 23:00N 60°28' E 018°58'5 9.3
2017-Aug-11 22:31N 60°32' E 018°53'510.0
2017-Aug-11 22:00N 60°34' E 018°44'510.0
2017-Aug-11 21:30N 60°37' E 018°36'510.1
2017-Aug-11 21:00N 60°40' E 018°27'510.3
2017-Aug-11 20:30N 60°42' E 018°18'5 9.9
2017-Aug-11 20:00N 60°45' E 018°09'610.8
2017-Aug-11 19:30N 60°48' E 017°59'48 9.2
2017-Aug-11 14:15N 61°33' E 017°29'11 3.6
2017-Aug-11 11:15N 61°37' E 017°07'0 0.0
2017-Aug-11 10:58N 61°37' E 017°07'0 0.0
2017-Aug-11 10:30N 61°37' E 017°07'0 0.0
2017-Aug-11 10:00N 61°37' E 017°07'0 0.0
2017-Aug-11 09:30N 61°37' E 017°07'0 0.0
2017-Aug-11 09:00N 61°37' E 017°07'0 0.0
2017-Aug-11 08:30N 61°37' E 017°07'0 0.0
2017-Aug-11 08:00N 61°37' E 017°07'0 0.0
2017-Aug-11 07:30N 61°37' E 017°07'0 0.0
2017-Aug-11 07:00N 61°37' E 017°07'0 0.0
2017-Aug-11 05:51N 61°37' E 017°07'  

Dump ship's entire track history